sensor_id;sensor_type;location;lat;lon;timestamp;P1;durP1;ratioP1;P2;durP2;ratioP2
39846;SDS011;25517;52.422;10.782;2023-06-26T00:00:23;8.02;;;6.20;;
39846;SDS011;25517;52.422;10.782;2023-06-26T00:02:48;8.93;;;6.65;;
39846;SDS011;25517;52.422;10.782;2023-06-26T00:05:14;8.57;;;6.90;;
39846;SDS011;25517;52.422;10.782;2023-06-26T00:07:39;9.20;;;6.70;;
39846;SDS011;25517;52.422;10.782;2023-06-26T00:10:05;7.93;;;6.50;;
39846;SDS011;25517;52.422;10.782;2023-06-26T00:12:31;13.90;;;6.65;;
39846;SDS011;25517;52.422;10.782;2023-06-26T00:14:57;7.63;;;6.32;;
39846;SDS011;25517;52.422;10.782;2023-06-26T00:17:23;7.50;;;6.43;;
39846;SDS011;25517;52.422;10.782;2023-06-26T00:19:49;7.28;;;6.30;;
39846;SDS011;25517;52.422;10.782;2023-06-26T00:22:15;7.25;;;6.38;;
39846;SDS011;25517;52.422;10.782;2023-06-26T00:24:40;6.88;;;6.05;;
39846;SDS011;25517;52.422;10.782;2023-06-26T00:27:06;6.43;;;5.72;;
39846;SDS011;25517;52.422;10.782;2023-06-26T00:29:32;7.32;;;6.30;;
39846;SDS011;25517;52.422;10.782;2023-06-26T00:31:57;7.97;;;6.45;;
39846;SDS011;25517;52.422;10.782;2023-06-26T00:34:23;7.03;;;6.30;;
39846;SDS011;25517;52.422;10.782;2023-06-26T00:36:48;7.68;;;6.50;;
39846;SDS011;25517;52.422;10.782;2023-06-26T00:39:14;9.95;;;6.00;;
39846;SDS011;25517;52.422;10.782;2023-06-26T00:41:40;7.97;;;6.88;;
39846;SDS011;25517;52.422;10.782;2023-06-26T00:44:05;6.88;;;6.15;;
39846;SDS011;25517;52.422;10.782;2023-06-26T00:46:31;8.05;;;7.07;;
39846;SDS011;25517;52.422;10.782;2023-06-26T00:49:00;9.18;;;7.53;;
39846;SDS011;25517;52.422;10.782;2023-06-26T00:53:54;10.50;;;6.18;;
39846;SDS011;25517;52.422;10.782;2023-06-26T00:56:20;8.20;;;7.00;;
39846;SDS011;25517;52.422;10.782;2023-06-26T00:58:45;8.02;;;6.53;;
39846;SDS011;25517;52.422;10.782;2023-06-26T01:01:11;8.40;;;6.75;;
39846;SDS011;25517;52.422;10.782;2023-06-26T01:03:45;7.97;;;7.05;;
39846;SDS011;25517;52.422;10.782;2023-06-26T01:06:18;8.52;;;6.60;;
39846;SDS011;25517;52.422;10.782;2023-06-26T01:08:47;7.50;;;6.47;;
39846;SDS011;25517;52.422;10.782;2023-06-26T01:11:13;8.48;;;6.88;;
39846;SDS011;25517;52.422;10.782;2023-06-26T01:13:39;10.02;;;7.05;;
39846;SDS011;25517;52.422;10.782;2023-06-26T01:16:06;7.25;;;6.53;;
39846;SDS011;25517;52.422;10.782;2023-06-26T01:18:33;7.18;;;6.47;;
39846;SDS011;25517;52.422;10.782;2023-06-26T01:21:00;8.07;;;7.25;;
39846;SDS011;25517;52.422;10.782;2023-06-26T01:23:31;7.55;;;6.72;;
39846;SDS011;25517;52.422;10.782;2023-06-26T01:28:37;6.88;;;6.03;;
39846;SDS011;25517;52.422;10.782;2023-06-26T01:31:06;8.27;;;6.75;;
39846;SDS011;25517;52.422;10.782;2023-06-26T01:33:33;8.35;;;6.93;;
39846;SDS011;25517;52.422;10.782;2023-06-26T01:35:59;7.50;;;6.57;;
39846;SDS011;25517;52.422;10.782;2023-06-26T01:38:25;7.05;;;6.35;;
39846;SDS011;25517;52.422;10.782;2023-06-26T01:40:53;7.32;;;6.63;;
39846;SDS011;25517;52.422;10.782;2023-06-26T01:46:08;7.55;;;6.75;;
39846;SDS011;25517;52.422;10.782;2023-06-26T01:49:25;8.63;;;6.70;;
39846;SDS011;25517;52.422;10.782;2023-06-26T01:51:27;8.82;;;7.30;;
39846;SDS011;25517;52.422;10.782;2023-06-26T01:53:57;9.02;;;7.25;;
39846;SDS011;25517;52.422;10.782;2023-06-26T01:56:25;8.25;;;7.35;;
39846;SDS011;25517;52.422;10.782;2023-06-26T01:58:52;8.77;;;6.82;;
39846;SDS011;25517;52.422;10.782;2023-06-26T02:01:19;10.25;;;7.10;;
39846;SDS011;25517;52.422;10.782;2023-06-26T02:03:45;7.70;;;6.80;;
39846;SDS011;25517;52.422;10.782;2023-06-26T02:09:34;8.95;;;6.85;;
39846;SDS011;25517;52.422;10.782;2023-06-26T02:11:59;8.18;;;7.28;;
39846;SDS011;25517;52.422;10.782;2023-06-26T02:14:24;8.48;;;7.65;;
39846;SDS011;25517;52.422;10.782;2023-06-26T02:16:50;10.38;;;8.15;;
39846;SDS011;25517;52.422;10.782;2023-06-26T02:19:15;9.35;;;8.27;;
39846;SDS011;25517;52.422;10.782;2023-06-26T02:21:46;8.65;;;7.72;;
39846;SDS011;25517;52.422;10.782;2023-06-26T02:24:15;9.93;;;7.18;;
39846;SDS011;25517;52.422;10.782;2023-06-26T02:26:41;8.90;;;7.60;;
39846;SDS011;25517;52.422;10.782;2023-06-26T02:29:06;8.25;;;7.38;;
39846;SDS011;25517;52.422;10.782;2023-06-26T02:31:32;9.80;;;8.18;;
39846;SDS011;25517;52.422;10.782;2023-06-26T02:33:57;8.70;;;7.40;;
39846;SDS011;25517;52.422;10.782;2023-06-26T02:36:23;8.95;;;7.40;;
39846;SDS011;25517;52.422;10.782;2023-06-26T02:38:48;8.43;;;7.18;;
39846;SDS011;25517;52.422;10.782;2023-06-26T02:41:14;10.20;;;7.95;;
39846;SDS011;25517;52.422;10.782;2023-06-26T02:43:39;11.80;;;8.63;;
39846;SDS011;25517;52.422;10.782;2023-06-26T02:46:05;12.27;;;7.82;;
39846;SDS011;25517;52.422;10.782;2023-06-26T02:48:30;8.52;;;7.63;;
39846;SDS011;25517;52.422;10.782;2023-06-26T02:50:56;8.20;;;7.40;;
39846;SDS011;25517;52.422;10.782;2023-06-26T02:53:21;8.00;;;7.20;;
39846;SDS011;25517;52.422;10.782;2023-06-26T02:55:47;8.70;;;7.53;;
39846;SDS011;25517;52.422;10.782;2023-06-26T02:58:12;9.00;;;7.10;;
39846;SDS011;25517;52.422;10.782;2023-06-26T03:00:38;9.10;;;7.68;;
39846;SDS011;25517;52.422;10.782;2023-06-26T03:03:06;8.75;;;7.50;;
39846;SDS011;25517;52.422;10.782;2023-06-26T03:05:32;8.32;;;7.22;;
39846;SDS011;25517;52.422;10.782;2023-06-26T03:07:58;8.90;;;7.90;;
39846;SDS011;25517;52.422;10.782;2023-06-26T03:10:23;9.88;;;7.35;;
39846;SDS011;25517;52.422;10.782;2023-06-26T03:12:49;8.50;;;7.28;;
39846;SDS011;25517;52.422;10.782;2023-06-26T03:15:14;9.63;;;7.22;;
39846;SDS011;25517;52.422;10.782;2023-06-26T03:17:40;9.60;;;7.47;;
39846;SDS011;25517;52.422;10.782;2023-06-26T03:20:06;9.25;;;7.60;;
39846;SDS011;25517;52.422;10.782;2023-06-26T03:22:32;10.00;;;7.07;;
39846;SDS011;25517;52.422;10.782;2023-06-26T03:24:58;8.88;;;7.55;;
39846;SDS011;25517;52.422;10.782;2023-06-26T03:27:24;9.30;;;7.60;;
39846;SDS011;25517;52.422;10.782;2023-06-26T03:29:51;7.70;;;6.93;;
39846;SDS011;25517;52.422;10.782;2023-06-26T03:32:17;9.00;;;7.50;;
39846;SDS011;25517;52.422;10.782;2023-06-26T03:34:43;8.77;;;7.88;;
39846;SDS011;25517;52.422;10.782;2023-06-26T03:37:08;8.88;;;7.25;;
39846;SDS011;25517;52.422;10.782;2023-06-26T03:39:34;10.20;;;7.32;;
39846;SDS011;25517;52.422;10.782;2023-06-26T03:42:00;8.10;;;6.95;;
39846;SDS011;25517;52.422;10.782;2023-06-26T03:44:26;8.40;;;7.20;;
39846;SDS011;25517;52.422;10.782;2023-06-26T03:46:52;8.15;;;6.78;;
39846;SDS011;25517;52.422;10.782;2023-06-26T03:49:18;8.27;;;6.70;;
39846;SDS011;25517;52.422;10.782;2023-06-26T03:51:43;8.07;;;7.28;;
39846;SDS011;25517;52.422;10.782;2023-06-26T03:54:09;9.30;;;7.00;;
39846;SDS011;25517;52.422;10.782;2023-06-26T03:56:35;8.32;;;7.05;;
39846;SDS011;25517;52.422;10.782;2023-06-26T03:59:01;9.13;;;7.35;;
39846;SDS011;25517;52.422;10.782;2023-06-26T04:01:26;9.88;;;7.00;;
39846;SDS011;25517;52.422;10.782;2023-06-26T04:03:52;9.40;;;7.53;;
39846;SDS011;25517;52.422;10.782;2023-06-26T04:06:18;8.85;;;7.30;;
39846;SDS011;25517;52.422;10.782;2023-06-26T04:08:44;8.23;;;7.18;;
39846;SDS011;25517;52.422;10.782;2023-06-26T04:11:09;8.77;;;7.20;;
39846;SDS011;25517;52.422;10.782;2023-06-26T04:13:35;9.88;;;7.25;;
39846;SDS011;25517;52.422;10.782;2023-06-26T04:16:00;8.73;;;7.25;;
39846;SDS011;25517;52.422;10.782;2023-06-26T04:18:26;9.68;;;7.03;;
39846;SDS011;25517;52.422;10.782;2023-06-26T04:21:08;12.88;;;8.07;;
39846;SDS011;25517;52.422;10.782;2023-06-26T04:23:36;8.82;;;7.07;;
39846;SDS011;25517;52.422;10.782;2023-06-26T04:26:02;8.63;;;7.68;;
39846;SDS011;25517;52.422;10.782;2023-06-26T04:28:29;9.77;;;7.30;;
39846;SDS011;25517;52.422;10.782;2023-06-26T04:30:59;9.70;;;7.60;;
39846;SDS011;25517;52.422;10.782;2023-06-26T04:33:26;8.70;;;6.85;;
39846;SDS011;25517;52.422;10.782;2023-06-26T04:35:52;10.13;;;7.22;;
39846;SDS011;25517;52.422;10.782;2023-06-26T04:38:18;11.13;;;7.45;;
39846;SDS011;25517;52.422;10.782;2023-06-26T04:40:44;9.88;;;7.20;;
39846;SDS011;25517;52.422;10.782;2023-06-26T04:43:10;7.07;;;6.38;;
39846;SDS011;25517;52.422;10.782;2023-06-26T04:45:36;8.40;;;6.97;;
39846;SDS011;25517;52.422;10.782;2023-06-26T04:48:02;8.13;;;6.80;;
39846;SDS011;25517;52.422;10.782;2023-06-26T04:50:28;9.25;;;7.10;;
39846;SDS011;25517;52.422;10.782;2023-06-26T04:52:54;10.32;;;6.80;;
39846;SDS011;25517;52.422;10.782;2023-06-26T04:55:20;8.50;;;6.80;;
39846;SDS011;25517;52.422;10.782;2023-06-26T04:57:46;9.13;;;6.95;;
39846;SDS011;25517;52.422;10.782;2023-06-26T05:00:12;8.45;;;6.80;;
39846;SDS011;25517;52.422;10.782;2023-06-26T05:02:38;9.98;;;6.30;;
39846;SDS011;25517;52.422;10.782;2023-06-26T05:05:04;9.13;;;6.60;;
39846;SDS011;25517;52.422;10.782;2023-06-26T05:07:29;7.40;;;6.07;;
39846;SDS011;25517;52.422;10.782;2023-06-26T05:09:55;7.35;;;6.55;;
39846;SDS011;25517;52.422;10.782;2023-06-26T05:12:20;8.40;;;6.70;;
39846;SDS011;25517;52.422;10.782;2023-06-26T05:14:46;10.32;;;6.78;;
39846;SDS011;25517;52.422;10.782;2023-06-26T05:17:13;6.75;;;5.82;;
39846;SDS011;25517;52.422;10.782;2023-06-26T05:19:39;7.35;;;6.00;;
39846;SDS011;25517;52.422;10.782;2023-06-26T05:22:05;8.02;;;6.47;;
39846;SDS011;25517;52.422;10.782;2023-06-26T05:24:32;8.20;;;6.32;;
39846;SDS011;25517;52.422;10.782;2023-06-26T05:27:02;7.88;;;6.32;;
39846;SDS011;25517;52.422;10.782;2023-06-26T05:29:31;6.25;;;5.65;;
39846;SDS011;25517;52.422;10.782;2023-06-26T05:31:58;8.07;;;6.03;;
39846;SDS011;25517;52.422;10.782;2023-06-26T05:34:24;10.90;;;6.78;;
39846;SDS011;25517;52.422;10.782;2023-06-26T05:36:51;9.38;;;5.68;;
39846;SDS011;25517;52.422;10.782;2023-06-26T05:39:17;7.88;;;5.75;;
39846;SDS011;25517;52.422;10.782;2023-06-26T05:41:43;8.23;;;6.20;;
39846;SDS011;25517;52.422;10.782;2023-06-26T05:44:09;8.82;;;5.78;;
39846;SDS011;25517;52.422;10.782;2023-06-26T05:46:35;7.13;;;6.22;;
39846;SDS011;25517;52.422;10.782;2023-06-26T05:49:01;7.18;;;5.75;;
39846;SDS011;25517;52.422;10.782;2023-06-26T05:51:27;9.10;;;5.90;;
39846;SDS011;25517;52.422;10.782;2023-06-26T05:53:53;12.35;;;5.80;;
39846;SDS011;25517;52.422;10.782;2023-06-26T05:56:19;8.98;;;5.80;;
39846;SDS011;25517;52.422;10.782;2023-06-26T05:58:45;7.60;;;5.93;;
39846;SDS011;25517;52.422;10.782;2023-06-26T06:01:11;6.95;;;6.25;;
39846;SDS011;25517;52.422;10.782;2023-06-26T06:03:37;8.23;;;6.20;;
39846;SDS011;25517;52.422;10.782;2023-06-26T06:06:03;7.57;;;5.15;;
39846;SDS011;25517;52.422;10.782;2023-06-26T06:08:29;6.50;;;5.60;;
39846;SDS011;25517;52.422;10.782;2023-06-26T06:10:54;6.50;;;5.82;;
39846;SDS011;25517;52.422;10.782;2023-06-26T06:13:20;9.07;;;5.75;;
39846;SDS011;25517;52.422;10.782;2023-06-26T06:15:45;6.93;;;5.32;;
39846;SDS011;25517;52.422;10.782;2023-06-26T06:18:11;7.03;;;6.28;;
39846;SDS011;25517;52.422;10.782;2023-06-26T06:20:36;7.53;;;5.68;;
39846;SDS011;25517;52.422;10.782;2023-06-26T06:23:02;6.70;;;6.03;;
39846;SDS011;25517;52.422;10.782;2023-06-26T06:25:27;7.72;;;6.47;;
39846;SDS011;25517;52.422;10.782;2023-06-26T06:27:53;6.63;;;5.10;;
39846;SDS011;25517;52.422;10.782;2023-06-26T06:30:18;8.20;;;6.05;;
39846;SDS011;25517;52.422;10.782;2023-06-26T06:32:44;6.03;;;5.43;;
39846;SDS011;25517;52.422;10.782;2023-06-26T06:35:10;5.80;;;5.30;;
39846;SDS011;25517;52.422;10.782;2023-06-26T06:37:37;6.85;;;5.97;;
39846;SDS011;25517;52.422;10.782;2023-06-26T06:40:03;8.27;;;6.60;;
39846;SDS011;25517;52.422;10.782;2023-06-26T06:42:31;8.05;;;5.82;;
39846;SDS011;25517;52.422;10.782;2023-06-26T06:44:57;7.60;;;5.90;;
39846;SDS011;25517;52.422;10.782;2023-06-26T06:47:22;8.45;;;6.20;;
39846;SDS011;25517;52.422;10.782;2023-06-26T06:49:48;6.15;;;5.55;;
39846;SDS011;25517;52.422;10.782;2023-06-26T06:52:13;6.70;;;6.00;;
39846;SDS011;25517;52.422;10.782;2023-06-26T06:54:55;6.50;;;5.22;;
39846;SDS011;25517;52.422;10.782;2023-06-26T06:57:24;7.72;;;6.25;;
39846;SDS011;25517;52.422;10.782;2023-06-26T06:59:49;8.25;;;5.60;;
39846;SDS011;25517;52.422;10.782;2023-06-26T07:02:18;6.35;;;5.43;;
39846;SDS011;25517;52.422;10.782;2023-06-26T07:04:44;6.78;;;5.85;;
39846;SDS011;25517;52.422;10.782;2023-06-26T07:07:09;9.20;;;5.88;;
39846;SDS011;25517;52.422;10.782;2023-06-26T07:09:35;7.05;;;6.05;;
39846;SDS011;25517;52.422;10.782;2023-06-26T07:12:01;8.25;;;5.35;;
39846;SDS011;25517;52.422;10.782;2023-06-26T07:14:27;6.18;;;5.43;;
39846;SDS011;25517;52.422;10.782;2023-06-26T07:16:53;6.90;;;6.00;;
39846;SDS011;25517;52.422;10.782;2023-06-26T07:19:18;8.70;;;6.13;;
39846;SDS011;25517;52.422;10.782;2023-06-26T07:21:44;7.68;;;5.78;;
39846;SDS011;25517;52.422;10.782;2023-06-26T07:24:11;7.05;;;6.03;;
39846;SDS011;25517;52.422;10.782;2023-06-26T07:26:36;6.57;;;5.70;;
39846;SDS011;25517;52.422;10.782;2023-06-26T07:29:02;6.03;;;5.38;;
39846;SDS011;25517;52.422;10.782;2023-06-26T07:31:27;7.05;;;5.72;;
39846;SDS011;25517;52.422;10.782;2023-06-26T07:33:53;5.97;;;5.38;;
39846;SDS011;25517;52.422;10.782;2023-06-26T07:36:18;6.85;;;6.15;;
39846;SDS011;25517;52.422;10.782;2023-06-26T07:38:44;8.57;;;5.40;;
39846;SDS011;25517;52.422;10.782;2023-06-26T07:41:10;6.90;;;6.20;;
39846;SDS011;25517;52.422;10.782;2023-06-26T07:43:36;7.68;;;6.05;;
39846;SDS011;25517;52.422;10.782;2023-06-26T07:46:01;7.07;;;5.60;;
39846;SDS011;25517;52.422;10.782;2023-06-26T07:48:27;9.10;;;6.03;;
39846;SDS011;25517;52.422;10.782;2023-06-26T07:50:52;9.00;;;6.07;;
39846;SDS011;25517;52.422;10.782;2023-06-26T07:53:18;9.63;;;6.38;;
39846;SDS011;25517;52.422;10.782;2023-06-26T07:55:44;7.43;;;6.13;;
39846;SDS011;25517;52.422;10.782;2023-06-26T07:58:10;7.68;;;6.22;;
39846;SDS011;25517;52.422;10.782;2023-06-26T08:00:35;9.05;;;5.88;;
39846;SDS011;25517;52.422;10.782;2023-06-26T08:03:01;8.18;;;6.10;;
39846;SDS011;25517;52.422;10.782;2023-06-26T08:05:27;6.55;;;5.70;;
39846;SDS011;25517;52.422;10.782;2023-06-26T08:07:52;8.43;;;6.13;;
39846;SDS011;25517;52.422;10.782;2023-06-26T08:10:18;10.45;;;5.82;;
39846;SDS011;25517;52.422;10.782;2023-06-26T08:12:43;8.13;;;6.03;;
39846;SDS011;25517;52.422;10.782;2023-06-26T08:15:10;8.10;;;5.85;;
39846;SDS011;25517;52.422;10.782;2023-06-26T08:17:37;6.10;;;5.47;;
39846;SDS011;25517;52.422;10.782;2023-06-26T08:20:03;7.53;;;5.85;;
39846;SDS011;25517;52.422;10.782;2023-06-26T08:22:29;7.50;;;5.88;;
39846;SDS011;25517;52.422;10.782;2023-06-26T08:24:55;6.00;;;5.45;;
39846;SDS011;25517;52.422;10.782;2023-06-26T08:27:20;5.90;;;5.13;;
39846;SDS011;25517;52.422;10.782;2023-06-26T08:29:46;8.70;;;5.47;;
39846;SDS011;25517;52.422;10.782;2023-06-26T08:32:11;8.93;;;5.53;;
39846;SDS011;25517;52.422;10.782;2023-06-26T08:34:37;5.65;;;5.15;;
39846;SDS011;25517;52.422;10.782;2023-06-26T08:37:02;7.60;;;5.10;;
39846;SDS011;25517;52.422;10.782;2023-06-26T08:39:28;6.32;;;5.72;;
39846;SDS011;25517;52.422;10.782;2023-06-26T08:41:54;12.10;;;5.47;;
39846;SDS011;25517;52.422;10.782;2023-06-26T08:44:19;7.07;;;5.20;;
39846;SDS011;25517;52.422;10.782;2023-06-26T08:46:49;5.22;;;4.75;;
39846;SDS011;25517;52.422;10.782;2023-06-26T08:49:18;5.03;;;4.50;;
39846;SDS011;25517;52.422;10.782;2023-06-26T08:51:50;4.75;;;4.35;;
39846;SDS011;25517;52.422;10.782;2023-06-26T08:54:22;6.25;;;4.57;;
39846;SDS011;25517;52.422;10.782;2023-06-26T08:57:00;9.20;;;4.78;;
39846;SDS011;25517;52.422;10.782;2023-06-26T08:59:26;10.00;;;4.90;;
39846;SDS011;25517;52.422;10.782;2023-06-26T09:01:53;5.28;;;4.78;;
39846;SDS011;25517;52.422;10.782;2023-06-26T09:04:19;5.50;;;4.60;;
39846;SDS011;25517;52.422;10.782;2023-06-26T09:06:44;5.03;;;4.60;;
39846;SDS011;25517;52.422;10.782;2023-06-26T09:09:10;4.68;;;4.28;;
39846;SDS011;25517;52.422;10.782;2023-06-26T09:11:35;5.95;;;4.75;;
39846;SDS011;25517;52.422;10.782;2023-06-26T09:14:01;4.90;;;4.50;;
39846;SDS011;25517;52.422;10.782;2023-06-26T09:16:30;4.38;;;4.03;;
39846;SDS011;25517;52.422;10.782;2023-06-26T09:18:56;6.63;;;4.90;;
39846;SDS011;25517;52.422;10.782;2023-06-26T09:21:21;5.32;;;4.60;;
39846;SDS011;25517;52.422;10.782;2023-06-26T09:23:49;6.78;;;4.70;;
39846;SDS011;25517;52.422;10.782;2023-06-26T09:26:15;4.50;;;4.10;;
39846;SDS011;25517;52.422;10.782;2023-06-26T09:28:41;5.63;;;4.35;;
39846;SDS011;25517;52.422;10.782;2023-06-26T09:31:08;7.05;;;4.57;;
39846;SDS011;25517;52.422;10.782;2023-06-26T09:33:35;5.72;;;5.22;;
39846;SDS011;25517;52.422;10.782;2023-06-26T09:36:01;4.88;;;4.47;;
39846;SDS011;25517;52.422;10.782;2023-06-26T09:38:43;5.55;;;4.22;;
39846;SDS011;25517;52.422;10.782;2023-06-26T09:41:08;4.95;;;4.45;;
39846;SDS011;25517;52.422;10.782;2023-06-26T09:43:34;7.25;;;4.97;;
39846;SDS011;25517;52.422;10.782;2023-06-26T09:46:00;4.93;;;4.53;;
39846;SDS011;25517;52.422;10.782;2023-06-26T09:48:26;5.38;;;4.25;;
39846;SDS011;25517;52.422;10.782;2023-06-26T09:50:53;5.20;;;3.78;;
39846;SDS011;25517;52.422;10.782;2023-06-26T09:53:19;7.70;;;4.70;;
39846;SDS011;25517;52.422;10.782;2023-06-26T09:55:45;8.88;;;4.95;;
39846;SDS011;25517;52.422;10.782;2023-06-26T09:58:11;5.05;;;4.60;;
39846;SDS011;25517;52.422;10.782;2023-06-26T10:03:07;6.97;;;4.70;;
39846;SDS011;25517;52.422;10.782;2023-06-26T10:05:33;7.32;;;5.15;;
39846;SDS011;25517;52.422;10.782;2023-06-26T10:07:59;5.07;;;4.55;;
39846;SDS011;25517;52.422;10.782;2023-06-26T10:10:26;5.03;;;4.50;;
39846;SDS011;25517;52.422;10.782;2023-06-26T10:12:54;5.40;;;4.90;;
39846;SDS011;25517;52.422;10.782;2023-06-26T10:15:24;7.03;;;5.70;;
39846;SDS011;25517;52.422;10.782;2023-06-26T10:17:50;6.53;;;5.03;;
39846;SDS011;25517;52.422;10.782;2023-06-26T10:20:19;6.25;;;5.45;;
39846;SDS011;25517;52.422;10.782;2023-06-26T10:22:45;5.95;;;5.43;;
39846;SDS011;25517;52.422;10.782;2023-06-26T10:25:12;6.85;;;5.55;;
39846;SDS011;25517;52.422;10.782;2023-06-26T10:27:44;5.32;;;4.82;;
39846;SDS011;25517;52.422;10.782;2023-06-26T10:30:14;7.40;;;5.07;;
39846;SDS011;25517;52.422;10.782;2023-06-26T10:32:44;6.28;;;4.90;;
39846;SDS011;25517;52.422;10.782;2023-06-26T10:35:11;11.45;;;5.85;;
39846;SDS011;25517;52.422;10.782;2023-06-26T10:37:41;7.20;;;5.35;;
39846;SDS011;25517;52.422;10.782;2023-06-26T10:40:09;6.43;;;4.90;;
39846;SDS011;25517;52.422;10.782;2023-06-26T10:42:35;6.18;;;5.57;;
39846;SDS011;25517;52.422;10.782;2023-06-26T10:45:15;11.23;;;5.47;;
39846;SDS011;25517;52.422;10.782;2023-06-26T10:47:48;10.73;;;5.40;;
39846;SDS011;25517;52.422;10.782;2023-06-26T10:52:46;7.63;;;5.78;;
39846;SDS011;25517;52.422;10.782;2023-06-26T10:55:35;8.25;;;5.65;;
39846;SDS011;25517;52.422;10.782;2023-06-26T10:58:01;6.50;;;5.90;;
39846;SDS011;25517;52.422;10.782;2023-06-26T11:00:27;9.93;;;6.40;;
39846;SDS011;25517;52.422;10.782;2023-06-26T11:02:53;7.88;;;6.30;;
39846;SDS011;25517;52.422;10.782;2023-06-26T11:05:28;8.10;;;6.25;;
39846;SDS011;25517;52.422;10.782;2023-06-26T11:08:09;8.57;;;6.30;;
39846;SDS011;25517;52.422;10.782;2023-06-26T11:13:17;14.65;;;7.03;;
39846;SDS011;25517;52.422;10.782;2023-06-26T11:15:44;10.23;;;7.13;;
39846;SDS011;25517;52.422;10.782;2023-06-26T11:18:10;15.77;;;7.97;;
39846;SDS011;25517;52.422;10.782;2023-06-26T11:20:37;14.55;;;8.25;;
39846;SDS011;25517;52.422;10.782;2023-06-26T11:23:03;14.23;;;7.90;;
39846;SDS011;25517;52.422;10.782;2023-06-26T11:25:33;11.93;;;7.82;;
39846;SDS011;25517;52.422;10.782;2023-06-26T11:28:00;12.00;;;8.00;;
39846;SDS011;25517;52.422;10.782;2023-06-26T11:30:26;14.98;;;8.98;;
39846;SDS011;25517;52.422;10.782;2023-06-26T11:32:52;17.40;;;8.77;;
39846;SDS011;25517;52.422;10.782;2023-06-26T11:35:23;10.82;;;8.70;;
39846;SDS011;25517;52.422;10.782;2023-06-26T11:37:59;10.38;;;9.00;;
39846;SDS011;25517;52.422;10.782;2023-06-26T11:40:29;12.82;;;9.38;;
39846;SDS011;25517;52.422;10.782;2023-06-26T11:42:59;12.20;;;8.82;;
39846;SDS011;25517;52.422;10.782;2023-06-26T11:45:30;17.65;;;9.00;;
39846;SDS011;25517;52.422;10.782;2023-06-26T11:47:57;11.50;;;9.07;;
39846;SDS011;25517;52.422;10.782;2023-06-26T11:50:23;13.90;;;11.20;;
39846;SDS011;25517;52.422;10.782;2023-06-26T11:52:53;16.90;;;11.82;;
39846;SDS011;25517;52.422;10.782;2023-06-26T11:55:25;19.52;;;12.43;;
39846;SDS011;25517;52.422;10.782;2023-06-26T11:57:54;18.50;;;14.17;;
39846;SDS011;25517;52.422;10.782;2023-06-26T12:00:22;23.25;;;15.52;;
39846;SDS011;25517;52.422;10.782;2023-06-26T12:02:48;17.02;;;12.93;;
39846;SDS011;25517;52.422;10.782;2023-06-26T12:05:15;19.60;;;12.95;;
39846;SDS011;25517;52.422;10.782;2023-06-26T12:07:42;17.63;;;10.77;;
39846;SDS011;25517;52.422;10.782;2023-06-26T12:10:11;15.37;;;10.20;;
39846;SDS011;25517;52.422;10.782;2023-06-26T12:12:38;13.90;;;9.32;;
39846;SDS011;25517;52.422;10.782;2023-06-26T12:15:05;12.75;;;8.15;;
39846;SDS011;25517;52.422;10.782;2023-06-26T12:17:36;9.98;;;7.53;;
39846;SDS011;25517;52.422;10.782;2023-06-26T12:20:03;11.30;;;7.65;;
39846;SDS011;25517;52.422;10.782;2023-06-26T12:22:33;8.77;;;7.03;;
39846;SDS011;25517;52.422;10.782;2023-06-26T12:25:00;10.27;;;7.28;;
39846;SDS011;25517;52.422;10.782;2023-06-26T12:27:26;9.30;;;7.05;;
39846;SDS011;25517;52.422;10.782;2023-06-26T12:29:52;9.63;;;7.53;;
39846;SDS011;25517;52.422;10.782;2023-06-26T12:32:19;11.05;;;7.13;;
39846;SDS011;25517;52.422;10.782;2023-06-26T12:34:48;10.98;;;7.20;;
39846;SDS011;25517;52.422;10.782;2023-06-26T12:37:14;13.65;;;7.85;;
39846;SDS011;25517;52.422;10.782;2023-06-26T12:39:47;9.45;;;6.88;;
39846;SDS011;25517;52.422;10.782;2023-06-26T12:42:18;8.80;;;7.22;;
39846;SDS011;25517;52.422;10.782;2023-06-26T12:44:45;12.40;;;7.45;;
39846;SDS011;25517;52.422;10.782;2023-06-26T12:47:12;13.98;;;7.93;;
39846;SDS011;25517;52.422;10.782;2023-06-26T12:49:40;13.27;;;8.60;;
39846;SDS011;25517;52.422;10.782;2023-06-26T12:52:07;12.48;;;8.25;;
39846;SDS011;25517;52.422;10.782;2023-06-26T12:54:35;13.13;;;8.02;;
39846;SDS011;25517;52.422;10.782;2023-06-26T12:57:01;13.23;;;7.68;;
39846;SDS011;25517;52.422;10.782;2023-06-26T12:59:28;9.80;;;7.38;;
39846;SDS011;25517;52.422;10.782;2023-06-26T13:01:55;11.20;;;8.45;;
39846;SDS011;25517;52.422;10.782;2023-06-26T13:04:20;12.73;;;8.23;;
39846;SDS011;25517;52.422;10.782;2023-06-26T13:06:46;13.63;;;8.68;;
39846;SDS011;25517;52.422;10.782;2023-06-26T13:09:11;13.05;;;8.25;;
39846;SDS011;25517;52.422;10.782;2023-06-26T13:11:37;13.13;;;7.57;;
39846;SDS011;25517;52.422;10.782;2023-06-26T13:14:03;16.25;;;7.82;;
39846;SDS011;25517;52.422;10.782;2023-06-26T13:16:28;12.18;;;7.43;;
39846;SDS011;25517;52.422;10.782;2023-06-26T13:18:54;12.93;;;7.32;;
39846;SDS011;25517;52.422;10.782;2023-06-26T13:21:21;13.43;;;7.43;;
39846;SDS011;25517;52.422;10.782;2023-06-26T13:23:46;11.55;;;7.47;;
39846;SDS011;25517;52.422;10.782;2023-06-26T13:26:12;10.20;;;6.90;;
39846;SDS011;25517;52.422;10.782;2023-06-26T13:28:37;13.88;;;7.45;;
39846;SDS011;25517;52.422;10.782;2023-06-26T13:31:03;9.13;;;7.03;;
39846;SDS011;25517;52.422;10.782;2023-06-26T13:33:29;10.10;;;6.45;;
39846;SDS011;25517;52.422;10.782;2023-06-26T13:35:55;11.40;;;6.82;;
39846;SDS011;25517;52.422;10.782;2023-06-26T13:38:21;11.38;;;6.60;;
39846;SDS011;25517;52.422;10.782;2023-06-26T13:40:54;13.30;;;6.50;;
39846;SDS011;25517;52.422;10.782;2023-06-26T13:43:20;10.17;;;6.37;;
39846;SDS011;25517;52.422;10.782;2023-06-26T13:45:47;13.30;;;5.55;;
39846;SDS011;25517;52.422;10.782;2023-06-26T13:48:12;9.63;;;5.78;;
39846;SDS011;25517;52.422;10.782;2023-06-26T13:50:38;8.18;;;5.80;;
39846;SDS011;25517;52.422;10.782;2023-06-26T13:53:04;10.95;;;5.28;;
39846;SDS011;25517;52.422;10.782;2023-06-26T13:55:29;9.35;;;5.20;;
39846;SDS011;25517;52.422;10.782;2023-06-26T13:57:56;9.48;;;5.22;;
39846;SDS011;25517;52.422;10.782;2023-06-26T14:00:21;10.32;;;5.13;;
39846;SDS011;25517;52.422;10.782;2023-06-26T14:02:47;18.88;;;4.80;;
39846;SDS011;25517;52.422;10.782;2023-06-26T14:05:13;10.38;;;4.82;;
39846;SDS011;25517;52.422;10.782;2023-06-26T14:07:39;6.20;;;4.18;;
39846;SDS011;25517;52.422;10.782;2023-06-26T14:10:05;6.70;;;3.95;;
39846;SDS011;25517;52.422;10.782;2023-06-26T14:12:32;8.50;;;4.00;;
39846;SDS011;25517;52.422;10.782;2023-06-26T14:14:58;5.32;;;3.78;;
39846;SDS011;25517;52.422;10.782;2023-06-26T14:17:24;9.30;;;4.35;;
39846;SDS011;25517;52.422;10.782;2023-06-26T14:19:51;10.98;;;4.70;;
39846;SDS011;25517;52.422;10.782;2023-06-26T14:22:17;8.43;;;4.10;;
39846;SDS011;25517;52.422;10.782;2023-06-26T14:24:43;8.55;;;4.65;;
39846;SDS011;25517;52.422;10.782;2023-06-26T14:27:08;7.40;;;3.97;;
39846;SDS011;25517;52.422;10.782;2023-06-26T14:29:34;7.68;;;4.80;;
39846;SDS011;25517;52.422;10.782;2023-06-26T14:32:00;6.82;;;4.00;;
39846;SDS011;25517;52.422;10.782;2023-06-26T14:34:26;8.70;;;4.18;;
39846;SDS011;25517;52.422;10.782;2023-06-26T14:36:51;9.45;;;4.72;;
39846;SDS011;25517;52.422;10.782;2023-06-26T14:39:17;5.88;;;4.03;;
39846;SDS011;25517;52.422;10.782;2023-06-26T14:41:42;8.38;;;4.47;;
39846;SDS011;25517;52.422;10.782;2023-06-26T14:44:08;6.28;;;4.45;;
39846;SDS011;25517;52.422;10.782;2023-06-26T14:46:35;11.35;;;4.00;;